createdAt,value
2022-12-10T00:02:08.409Z,36.97
2022-12-10T00:04:35.177Z,34.97
2022-12-10T00:07:01.809Z,34.90
2022-12-10T00:09:29.849Z,35.92
2022-12-10T00:11:56.334Z,36.42
2022-12-10T00:14:22.758Z,37.22
2022-12-10T00:16:49.271Z,36.67
2022-12-10T00:19:15.949Z,35.85
2022-12-10T00:21:44.122Z,37.03
2022-12-10T00:24:11.630Z,40.60
2022-12-10T00:26:41.837Z,38.63
2022-12-10T00:29:10.502Z,38.10
2022-12-10T00:31:37.999Z,38.88
2022-12-10T00:34:06.882Z,38.72
2022-12-10T00:36:35.370Z,40.58
2022-12-10T00:39:02.010Z,41.58
2022-12-10T00:41:28.841Z,40.28
2022-12-10T00:43:55.583Z,41.13
2022-12-10T00:46:22.176Z,42.17
2022-12-10T00:48:49.032Z,42.80
2022-12-10T00:51:20.582Z,42.45
2022-12-10T00:53:48.014Z,41.30
2022-12-10T00:56:15.588Z,41.42
2022-12-10T00:58:42.239Z,41.95
2022-12-10T01:01:29.003Z,43.83
2022-12-10T01:03:57.407Z,41.63
2022-12-10T01:06:25.863Z,40.92
2022-12-10T01:08:53.239Z,44.70
2022-12-10T01:11:20.871Z,42.28
2022-12-10T01:13:49.404Z,40.95
2022-12-10T01:16:17.511Z,40.47
2022-12-10T01:18:44.050Z,43.63
2022-12-10T01:21:15.574Z,41.70
2022-12-10T01:23:42.843Z,43.85
2022-12-10T01:26:11.314Z,44.13
2022-12-10T01:28:38.948Z,46.65
2022-12-10T01:31:10.368Z,46.63
2022-12-10T01:33:37.948Z,44.83
2022-12-10T01:36:05.219Z,44.22
2022-12-10T01:38:31.732Z,45.30
2022-12-10T01:40:58.540Z,42.33
2022-12-10T01:43:25.110Z,42.88
2022-12-10T01:45:51.934Z,42.58
2022-12-10T01:48:18.379Z,42.90
2022-12-10T01:50:44.861Z,44.55
2022-12-10T01:53:12.480Z,42.72
2022-12-10T01:55:41.285Z,45.33
2022-12-10T01:58:07.771Z,42.65
2022-12-10T02:00:35.964Z,45.10
2022-12-10T02:03:15.055Z,44.00
2022-12-10T02:05:52.398Z,44.35
2022-12-10T02:08:33.227Z,43.65
2022-12-10T02:11:26.012Z,44.08
2022-12-10T02:14:04.650Z,43.65
2022-12-10T02:16:34.556Z,46.45
2022-12-10T02:19:23.696Z,43.03
2022-12-10T02:21:51.674Z,44.88
2022-12-10T02:24:21.116Z,43.88
2022-12-10T02:26:53.047Z,44.30
2022-12-10T02:29:25.438Z,43.35
2022-12-10T02:31:54.360Z,42.78
2022-12-10T02:34:21.236Z,45.85
2022-12-10T02:36:49.072Z,47.00
2022-12-10T02:39:17.819Z,46.80
2022-12-10T02:41:47.805Z,48.30
2022-12-10T02:44:16.605Z,48.75
2022-12-10T02:46:44.978Z,47.15
2022-12-10T02:49:12.864Z,47.53
2022-12-10T02:51:39.349Z,49.03
2022-12-10T02:54:07.728Z,48.03
2022-12-10T02:56:54.475Z,49.58
2022-12-10T02:59:25.883Z,53.38
2022-12-10T03:02:07.895Z,50.42
2022-12-10T03:04:37.720Z,49.33
2022-12-10T03:07:08.073Z,49.38
2022-12-10T03:09:53.451Z,49.10
2022-12-10T03:12:23.183Z,49.75
2022-12-10T03:14:49.675Z,48.33
2022-12-10T03:17:16.621Z,50.67
2022-12-10T03:19:45.220Z,48.20
2022-12-10T03:22:12.941Z,48.90
2022-12-10T03:24:40.048Z,52.10
2022-12-10T03:27:07.678Z,49.47
2022-12-10T03:29:54.391Z,48.05
2022-12-10T03:32:23.189Z,47.15
2022-12-10T03:34:50.414Z,48.28
2022-12-10T03:37:17.231Z,47.50
2022-12-10T03:39:43.808Z,48.30
2022-12-10T03:42:10.384Z,43.95
2022-12-10T03:44:37.810Z,44.60
2022-12-10T03:47:05.987Z,43.90
2022-12-10T03:49:32.666Z,45.10
2022-12-10T03:51:59.160Z,45.15
2022-12-10T03:54:25.579Z,44.50
2022-12-10T03:56:52.023Z,43.47
2022-12-10T03:59:18.638Z,43.20
2022-12-10T04:01:45.429Z,45.67
2022-12-10T04:04:14.514Z,45.85
2022-12-10T04:06:41.351Z,46.75
2022-12-10T04:09:08.028Z,44.70
2022-12-10T04:11:34.473Z,46.38
2022-12-10T04:14:19.769Z,46.17
2022-12-10T04:16:46.325Z,45.55
2022-12-10T04:19:13.957Z,46.08
2022-12-10T04:22:00.194Z,44.38
2022-12-10T04:24:46.443Z,47.78
2022-12-10T04:27:14.226Z,44.78
2022-12-10T04:29:40.707Z,48.55
2022-12-10T04:32:07.115Z,46.28
2022-12-10T04:34:33.558Z,42.30
2022-12-10T04:37:00.385Z,42.33
2022-12-10T04:39:26.888Z,43.55
2022-12-10T04:41:53.632Z,45.78
2022-12-10T04:44:20.265Z,44.28
2022-12-10T04:46:47.211Z,45.53
2022-12-10T04:49:14.074Z,45.90
2022-12-10T04:51:41.138Z,46.90
2022-12-10T04:54:08.088Z,48.63
2022-12-10T04:56:34.864Z,47.50
2022-12-10T04:59:01.474Z,50.95
2022-12-10T05:01:29.202Z,45.95
2022-12-10T05:03:58.675Z,49.55
2022-12-10T05:06:25.139Z,47.75
2022-12-10T05:08:51.605Z,48.92
2022-12-10T05:11:22.359Z,49.45
2022-12-10T05:13:49.116Z,49.25
2022-12-10T05:16:16.767Z,50.47
2022-12-10T05:18:43.447Z,52.13
2022-12-10T05:21:15.019Z,50.45
2022-12-10T05:23:43.753Z,47.40
2022-12-10T05:26:17.802Z,51.45
2022-12-10T05:28:48.956Z,53.00
2022-12-10T05:31:16.666Z,50.78
2022-12-10T05:33:43.343Z,55.17
2022-12-10T05:36:11.434Z,54.92
2022-12-10T05:38:38.016Z,50.35
2022-12-10T05:41:05.350Z,55.25
2022-12-10T05:43:32.109Z,57.20
2022-12-10T05:46:05.848Z,55.97
2022-12-10T05:48:32.993Z,54.08
2022-12-10T05:50:59.429Z,55.65
2022-12-10T05:53:25.911Z,54.30
2022-12-10T05:56:00.638Z,54.90
2022-12-10T05:58:28.159Z,57.28
2022-12-10T06:00:54.583Z,54.58
2022-12-10T06:03:21.048Z,53.63
2022-12-10T06:05:48.102Z,56.58
2022-12-10T06:08:14.612Z,56.42
2022-12-10T06:10:41.132Z,56.45
2022-12-10T06:13:07.575Z,56.30
2022-12-10T06:15:34.110Z,51.78
2022-12-10T06:18:00.551Z,50.55
2022-12-10T06:20:27.377Z,50.05
2022-12-10T06:22:53.747Z,51.67
2022-12-10T06:25:20.153Z,58.80
2022-12-10T06:27:48.467Z,56.72
2022-12-10T06:30:15.014Z,52.38
2022-12-10T06:32:43.879Z,52.60
2022-12-10T06:35:11.357Z,56.70
2022-12-10T06:37:37.858Z,54.63
2022-12-10T06:40:05.388Z,54.25
2022-12-10T06:42:31.824Z,51.63
2022-12-10T06:44:58.308Z,52.85
2022-12-10T06:47:24.699Z,53.95
2022-12-10T06:49:51.225Z,51.25
2022-12-10T06:52:17.685Z,51.47
2022-12-10T06:54:44.119Z,55.22
2022-12-10T06:57:10.568Z,56.42
2022-12-10T06:59:37.081Z,58.63
2022-12-10T07:02:03.753Z,53.95
2022-12-10T07:04:30.306Z,58.10
2022-12-10T07:06:56.704Z,57.70
2022-12-10T07:09:23.208Z,55.95
2022-12-10T07:11:49.746Z,59.53
2022-12-10T07:14:16.936Z,57.88
2022-12-10T07:16:43.658Z,58.00
2022-12-10T07:19:11.283Z,55.90
2022-12-10T07:21:38.673Z,56.47
2022-12-10T07:24:06.634Z,53.53
2022-12-10T07:26:34.608Z,58.10
2022-12-10T07:29:01.575Z,56.05
2022-12-10T07:31:28.430Z,87.68
2022-12-10T07:33:55.523Z,67.22
2022-12-10T07:36:26.259Z,60.75
2022-12-10T07:38:53.167Z,58.13
2022-12-10T07:41:19.652Z,60.08
2022-12-10T07:43:46.533Z,55.90
2022-12-10T07:46:18.259Z,57.17
2022-12-10T07:48:45.819Z,52.58
2022-12-10T07:51:12.727Z,52.00
2022-12-10T07:53:39.247Z,54.40
2022-12-10T07:56:06.370Z,60.28
2022-12-10T07:58:33.128Z,58.90
2022-12-10T08:00:59.594Z,56.95
2022-12-10T08:03:26.182Z,58.00
2022-12-10T08:06:02.969Z,54.58
2022-12-10T08:08:29.501Z,53.40
2022-12-10T08:10:55.927Z,56.42
2022-12-10T08:13:22.320Z,58.42
2022-12-10T08:15:48.704Z,56.60
2022-12-10T08:18:15.103Z,57.97
2022-12-10T08:20:41.524Z,55.10
2022-12-10T08:23:07.925Z,56.45
2022-12-10T08:25:40.242Z,53.80
2022-12-10T08:28:07.036Z,52.97
2022-12-10T08:30:33.638Z,53.10
2022-12-10T08:33:00.116Z,51.63
2022-12-10T08:35:26.733Z,49.40
2022-12-10T08:37:53.186Z,53.00
2022-12-10T08:40:19.660Z,55.25
2022-12-10T08:42:46.088Z,53.90
2022-12-10T08:45:12.532Z,55.25
2022-12-10T08:47:38.960Z,53.15
2022-12-10T08:50:05.805Z,54.15
2022-12-10T08:52:32.500Z,50.55
2022-12-10T08:54:59.006Z,53.30
2022-12-10T08:57:25.438Z,61.00
2022-12-10T08:59:51.833Z,55.60
2022-12-10T09:02:18.387Z,49.88
2022-12-10T09:04:47.189Z,51.38
2022-12-10T09:07:13.617Z,52.30
2022-12-10T09:09:40.013Z,51.88
2022-12-10T09:12:06.588Z,53.65
2022-12-10T09:14:33.349Z,52.55
2022-12-10T09:16:59.833Z,54.47
2022-12-10T09:19:26.287Z,51.58
2022-12-10T09:21:52.718Z,52.95
2022-12-10T09:24:19.160Z,56.22
2022-12-10T09:26:45.623Z,61.65
2022-12-10T09:29:12.057Z,56.25
2022-12-10T09:31:38.484Z,54.53
2022-12-10T09:34:05.119Z,57.33
2022-12-10T09:36:33.857Z,57.47
2022-12-10T09:39:00.405Z,53.78
2022-12-10T09:41:41.774Z,56.38
2022-12-10T09:44:08.169Z,55.45
2022-12-10T09:46:40.747Z,52.65
2022-12-10T09:49:10.242Z,55.72
2022-12-10T09:51:39.800Z,56.22
2022-12-10T09:54:17.426Z,56.53
2022-12-10T09:56:44.256Z,52.30
2022-12-10T09:59:31.651Z,56.08
2022-12-10T10:02:04.308Z,54.35
2022-12-10T10:04:30.785Z,56.03
2022-12-10T10:06:57.624Z,53.22
2022-12-10T10:09:24.280Z,52.42
2022-12-10T10:11:51.125Z,51.13
2022-12-10T10:14:25.699Z,56.35
2022-12-10T10:17:01.476Z,52.33
2022-12-10T10:19:39.976Z,48.70
2022-12-10T10:22:06.938Z,51.08
2022-12-10T10:24:37.726Z,54.70
2022-12-10T10:27:13.643Z,51.80
2022-12-10T10:29:40.082Z,54.75
2022-12-10T10:32:15.830Z,56.67
2022-12-10T10:34:42.531Z,53.47
2022-12-10T10:37:15.860Z,57.78
2022-12-10T10:39:47.313Z,60.28
2022-12-10T10:42:21.416Z,54.92
2022-12-10T10:44:47.926Z,56.20
2022-12-10T10:47:34.493Z,50.55
2022-12-10T10:50:02.443Z,52.75
2022-12-10T10:52:30.973Z,52.83
2022-12-10T10:54:57.479Z,52.65
2022-12-10T10:57:25.736Z,56.35
2022-12-10T10:59:57.271Z,54.72
2022-12-10T11:02:43.416Z,55.63
2022-12-10T11:05:17.948Z,47.30
2022-12-10T11:07:44.537Z,48.28
2022-12-10T11:10:22.051Z,51.05
2022-12-10T11:12:56.402Z,43.83
2022-12-10T11:15:22.860Z,47.47
2022-12-10T11:17:50.319Z,43.63
2022-12-10T11:20:41.866Z,47.97
2022-12-10T11:23:10.265Z,46.92
2022-12-10T11:25:36.745Z,44.45
2022-12-10T11:28:09.139Z,44.10
2022-12-10T11:30:39.870Z,43.40
2022-12-10T11:33:06.450Z,45.95
2022-12-10T11:35:39.038Z,46.28
2022-12-10T11:38:11.637Z,45.58
2022-12-10T11:40:38.221Z,46.80
2022-12-10T11:43:20.165Z,48.35
2022-12-10T11:45:55.850Z,48.05
2022-12-10T11:48:22.345Z,43.60
2022-12-10T11:50:51.006Z,47.53
2022-12-10T11:53:20.499Z,47.95
2022-12-10T11:56:05.913Z,49.25
2022-12-10T11:58:55.657Z,51.55
2022-12-10T12:01:22.198Z,51.47
2022-12-10T12:04:03.924Z,45.33
2022-12-10T12:06:40.057Z,44.08
2022-12-10T12:09:17.126Z,48.15
2022-12-10T12:11:55.969Z,41.33
2022-12-10T12:14:26.836Z,38.85
2022-12-10T12:17:01.528Z,37.63
2022-12-10T12:19:37.227Z,37.58
2022-12-10T12:22:13.022Z,37.72
2022-12-10T12:24:41.529Z,38.38
2022-12-10T12:27:17.621Z,38.75
2022-12-10T12:30:01.513Z,40.03
2022-12-10T12:35:06.983Z,38.70
2022-12-10T12:37:47.055Z,38.72
2022-12-10T12:40:16.114Z,40.08
2022-12-10T12:42:47.768Z,38.13
2022-12-10T12:45:17.407Z,39.40
2022-12-10T12:47:59.638Z,38.97
2022-12-10T12:52:58.958Z,39.40
2022-12-10T12:55:30.130Z,38.70
2022-12-10T12:58:08.226Z,40.17
2022-12-10T13:00:37.054Z,40.97
2022-12-10T13:03:28.781Z,39.67
2022-12-10T13:05:55.653Z,39.45
2022-12-10T13:08:22.146Z,41.15
2022-12-10T13:10:51.624Z,42.88
2022-12-10T13:13:24.416Z,44.33
2022-12-10T13:15:51.329Z,41.40
2022-12-10T13:18:19.876Z,41.58
2022-12-10T13:20:50.780Z,44.67
2022-12-10T13:23:26.285Z,43.15
2022-12-10T13:26:01.822Z,42.78
2022-12-10T13:28:51.733Z,44.03
2022-12-10T13:31:20.596Z,43.78
2022-12-10T13:33:50.670Z,43.05
2022-12-10T13:36:25.938Z,42.70
2022-12-10T13:38:57.102Z,41.95
2022-12-10T13:41:42.197Z,43.05
2022-12-10T13:44:27.416Z,45.05
2022-12-10T13:46:53.879Z,43.90
2022-12-10T13:49:21.948Z,47.17
2022-12-10T13:51:48.355Z,46.47
2022-12-10T13:54:33.659Z,44.65
2022-12-10T13:57:20.267Z,45.10
2022-12-10T13:59:46.645Z,49.15
2022-12-10T14:02:28.421Z,46.47
2022-12-10T14:05:10.377Z,46.72
2022-12-10T14:07:37.493Z,49.45
2022-12-10T14:10:04.265Z,48.50
2022-12-10T14:12:38.440Z,45.85
2022-12-10T14:15:24.434Z,51.10
2022-12-10T14:17:58.959Z,49.20
2022-12-10T14:20:26.257Z,47.95
2022-12-10T14:22:54.089Z,51.72
2022-12-10T14:25:22.827Z,49.40
2022-12-10T14:27:50.773Z,51.05
2022-12-10T14:30:22.091Z,50.55
2022-12-10T14:32:48.939Z,49.80
2022-12-10T14:35:23.143Z,49.53
2022-12-10T14:37:52.133Z,49.20
2022-12-10T14:40:20.690Z,50.88
2022-12-10T14:42:47.102Z,47.75
2022-12-10T14:45:14.943Z,49.13
2022-12-10T14:47:48.160Z,52.33
2022-12-10T14:50:16.321Z,49.15
2022-12-10T14:52:43.746Z,54.38
2022-12-10T14:55:17.371Z,51.13
2022-12-10T15:00:15.301Z,48.22
2022-12-10T15:02:49.591Z,49.75
2022-12-10T15:05:26.694Z,52.10
2022-12-10T15:08:04.100Z,52.05
2022-12-10T15:10:35.395Z,48.65
2022-12-10T15:13:02.293Z,50.03
2022-12-10T15:15:38.712Z,47.95
2022-12-10T15:18:08.193Z,48.28
2022-12-10T15:20:40.232Z,50.33
2022-12-10T15:23:08.453Z,47.88
2022-12-10T15:25:42.138Z,51.08
2022-12-10T15:28:22.053Z,48.15
2022-12-10T15:30:52.061Z,49.97
2022-12-10T15:33:32.909Z,51.40
2022-12-10T15:36:00.018Z,49.13
2022-12-10T15:38:27.254Z,49.15
2022-12-10T15:40:57.896Z,52.75
2022-12-10T15:43:24.258Z,49.78
2022-12-10T15:45:50.935Z,52.38
2022-12-10T15:48:17.880Z,52.25
2022-12-10T15:50:46.590Z,55.58
2022-12-10T15:53:16.696Z,55.50
2022-12-10T15:55:43.230Z,51.80
2022-12-10T15:58:13.664Z,53.40
2022-12-10T16:00:44.700Z,53.78
2022-12-10T16:03:14.857Z,54.80
2022-12-10T16:05:42.219Z,55.90
2022-12-10T16:08:19.363Z,59.30
2022-12-10T16:10:46.606Z,58.60
2022-12-10T16:13:25.290Z,55.50
2022-12-10T16:15:51.680Z,60.90
2022-12-10T16:18:18.109Z,55.13
2022-12-10T16:20:44.879Z,55.97
2022-12-10T16:23:11.794Z,55.35
2022-12-10T16:25:43.166Z,55.40
2022-12-10T16:28:09.591Z,51.78
2022-12-10T16:30:43.732Z,50.92
2022-12-10T16:33:12.855Z,49.55
2022-12-10T16:35:39.384Z,45.13
2022-12-10T16:38:10.455Z,43.95
2022-12-10T16:40:37.971Z,40.88
2022-12-10T16:43:04.437Z,42.33
2022-12-10T16:45:34.673Z,41.90
2022-12-10T16:48:01.565Z,43.85
2022-12-10T16:50:28.076Z,43.75
2022-12-10T16:52:55.901Z,48.40
2022-12-10T16:55:26.605Z,42.17
2022-12-10T16:57:53.523Z,41.67
2022-12-10T17:00:23.995Z,40.83
2022-12-10T17:02:51.211Z,39.90
2022-12-10T17:05:37.919Z,38.15
2022-12-10T17:08:04.863Z,37.92
2022-12-10T17:10:50.038Z,36.13
2022-12-10T17:13:16.678Z,39.90
2022-12-10T17:15:43.774Z,40.25
2022-12-10T17:18:14.360Z,36.35
2022-12-10T17:20:41.045Z,39.35
2022-12-10T17:23:07.652Z,42.30
2022-12-10T17:25:34.214Z,42.10
2022-12-10T17:28:00.755Z,41.58
2022-12-10T17:30:27.182Z,41.47
2022-12-10T17:32:54.233Z,44.42
2022-12-10T17:35:21.672Z,42.45
2022-12-10T17:37:51.278Z,42.03
2022-12-10T17:40:18.722Z,41.17
2022-12-10T17:42:45.290Z,38.75
2022-12-10T17:45:15.355Z,39.22
2022-12-10T17:47:45.151Z,39.45
2022-12-10T17:50:30.874Z,39.35
2022-12-10T17:53:01.667Z,36.95
2022-12-10T17:55:28.630Z,39.72
2022-12-10T17:57:57.961Z,40.13
2022-12-10T18:00:25.552Z,37.72
2022-12-10T18:02:52.061Z,37.92
2022-12-10T18:05:18.653Z,38.47
2022-12-10T18:07:45.108Z,39.33
2022-12-10T18:10:20.026Z,39.72
2022-12-10T18:12:46.675Z,41.85
2022-12-10T18:15:13.412Z,41.38
2022-12-10T18:17:40.059Z,42.10
2022-12-10T18:20:09.126Z,39.80
2022-12-10T18:22:36.606Z,43.50
2022-12-10T18:25:03.293Z,40.97
2022-12-10T18:27:29.722Z,42.95
2022-12-10T18:29:56.253Z,41.90
2022-12-10T18:32:22.652Z,41.78
2022-12-10T18:34:49.054Z,42.42
2022-12-10T18:37:15.502Z,45.22
2022-12-10T18:39:41.898Z,44.25
2022-12-10T18:42:08.335Z,42.83
2022-12-10T18:44:34.837Z,44.83
2022-12-10T18:47:01.608Z,44.17
2022-12-10T18:49:30.679Z,40.45
2022-12-10T18:51:57.096Z,42.95
2022-12-10T18:54:23.581Z,43.53
2022-12-10T18:57:09.698Z,43.30
2022-12-10T18:59:39.162Z,43.55
2022-12-10T19:02:05.577Z,42.88
2022-12-10T19:04:32.219Z,41.50
2022-12-10T19:06:59.548Z,42.83
2022-12-10T19:09:29.309Z,43.75
2022-12-10T19:11:59.025Z,44.72
2022-12-10T19:14:25.475Z,44.08
2022-12-10T19:16:52.138Z,45.58
2022-12-10T19:19:19.115Z,44.08
2022-12-10T19:21:46.249Z,45.10
2022-12-10T19:24:13.963Z,43.92
2022-12-10T19:26:41.560Z,43.22
2022-12-10T19:29:13.507Z,44.67
2022-12-10T19:31:40.292Z,44.00
2022-12-10T19:34:06.863Z,43.65
2022-12-10T19:36:34.201Z,43.35
2022-12-10T19:39:00.968Z,46.13
2022-12-10T19:41:27.530Z,45.38
2022-12-10T19:43:54.130Z,44.92
2022-12-10T19:46:21.996Z,44.70
2022-12-10T19:48:48.920Z,46.65
2022-12-10T19:51:15.667Z,47.55
2022-12-10T19:53:42.643Z,44.83
2022-12-10T19:56:25.953Z,47.97
2022-12-10T19:59:00.748Z,45.88
2022-12-10T20:01:27.635Z,43.70
2022-12-10T20:03:54.850Z,48.00
2022-12-10T20:06:30.896Z,46.70
2022-12-10T20:09:06.087Z,44.97
2022-12-10T20:11:32.590Z,47.80
2022-12-10T20:13:59.349Z,47.08
2022-12-10T20:16:26.943Z,48.13
2022-12-10T20:18:53.668Z,46.30
2022-12-10T20:21:20.625Z,46.40
2022-12-10T20:23:47.166Z,46.78
2022-12-10T20:26:18.152Z,47.08
2022-12-10T20:28:45.968Z,46.03
2022-12-10T20:31:12.902Z,43.00
2022-12-10T20:33:47.676Z,44.95
2022-12-10T20:36:18.924Z,45.85
2022-12-10T20:38:45.696Z,49.60
2022-12-10T20:41:13.331Z,50.72
2022-12-10T20:43:42.545Z,47.08
2022-12-10T20:46:13.512Z,47.35
2022-12-10T20:48:40.100Z,48.80
2022-12-10T20:51:06.541Z,45.53
2022-12-10T20:53:38.661Z,45.10
2022-12-10T20:56:06.935Z,46.10
2022-12-10T20:58:33.409Z,47.38
2022-12-10T21:00:59.809Z,46.25
2022-12-10T21:03:26.575Z,45.05
2022-12-10T21:05:53.121Z,44.15
2022-12-10T21:08:23.336Z,46.08
2022-12-10T21:10:54.609Z,44.80
2022-12-10T21:13:22.477Z,44.40
2022-12-10T21:15:49.288Z,47.33
2022-12-10T21:18:15.839Z,45.05
2022-12-10T21:20:42.572Z,45.58
2022-12-10T21:23:11.002Z,46.13
2022-12-10T21:25:38.331Z,45.25
2022-12-10T21:28:05.863Z,49.63
2022-12-10T21:30:33.381Z,47.05
2022-12-10T21:32:59.849Z,48.63
2022-12-10T21:35:26.574Z,50.17
2022-12-10T21:37:54.226Z,52.30
2022-12-10T21:40:20.796Z,48.65
2022-12-10T21:43:05.932Z,51.45
2022-12-10T21:45:32.448Z,45.30
2022-12-10T21:47:59.797Z,46.13
2022-12-10T21:50:26.676Z,41.58
2022-12-10T21:52:53.197Z,44.38
2022-12-10T21:55:24.028Z,45.58
2022-12-10T21:57:53.332Z,45.55
2022-12-10T22:00:19.999Z,45.83
2022-12-10T22:02:46.772Z,46.88
2022-12-10T22:05:13.847Z,44.97
2022-12-10T22:07:41.008Z,43.17
2022-12-10T22:10:08.555Z,43.92
2022-12-10T22:12:35.539Z,45.92
2022-12-10T22:15:02.068Z,41.20
2022-12-10T22:17:31.640Z,43.03
2022-12-10T22:19:58.173Z,41.63
2022-12-10T22:22:24.618Z,40.40
2022-12-10T22:24:51.042Z,43.65
2022-12-10T22:27:17.991Z,45.40
2022-12-10T22:29:44.481Z,47.08
2022-12-10T22:32:11.057Z,45.67
2022-12-10T22:34:43.555Z,45.00
2022-12-10T22:37:12.037Z,42.75
2022-12-10T22:39:38.448Z,43.33
2022-12-10T22:42:05.029Z,42.70
2022-12-10T22:44:31.614Z,39.47
2022-12-10T22:46:58.153Z,39.28
2022-12-10T22:49:24.614Z,43.63
2022-12-10T22:51:51.150Z,40.22
2022-12-10T22:54:20.864Z,40.85
2022-12-10T22:56:47.256Z,42.25
2022-12-10T22:59:13.714Z,39.63
2022-12-10T23:01:40.363Z,40.67
2022-12-10T23:04:06.942Z,40.42
2022-12-10T23:06:33.349Z,37.55
2022-12-10T23:08:59.885Z,39.30
2022-12-10T23:11:26.551Z,37.45
2022-12-10T23:13:53.030Z,39.10
2022-12-10T23:16:19.942Z,39.97
2022-12-10T23:18:50.477Z,39.38
2022-12-10T23:21:21.656Z,37.38
2022-12-10T23:23:48.167Z,42.22
2022-12-10T23:26:15.022Z,39.00
2022-12-10T23:28:41.627Z,40.20
2022-12-10T23:31:08.252Z,39.03
2022-12-10T23:33:36.087Z,41.42
2022-12-10T23:36:04.651Z,37.80
2022-12-10T23:38:31.360Z,37.05
2022-12-10T23:40:57.755Z,39.15
2022-12-10T23:43:24.158Z,36.78
2022-12-10T23:45:50.587Z,37.53
2022-12-10T23:48:17.249Z,37.75
2022-12-10T23:50:44.045Z,39.85
2022-12-10T23:53:10.495Z,38.03
2022-12-10T23:55:41.390Z,38.50
2022-12-10T23:58:07.760Z,37.70
